sensor_id;sensor_type;location;lat;lon;timestamp;P1;durP1;ratioP1;P2;durP2;ratioP2
52642;SDS011;38531;53.296;6.614;2022-07-25T00:01:53;0.80;;;0.60;;
52642;SDS011;38531;53.296;6.614;2022-07-25T00:04:19;0.57;;;0.50;;
52642;SDS011;38531;53.296;6.614;2022-07-25T00:06:45;1.00;;;0.60;;
52642;SDS011;38531;53.296;6.614;2022-07-25T00:09:11;1.08;;;0.60;;
52642;SDS011;38531;53.296;6.614;2022-07-25T00:11:40;1.00;;;0.57;;
52642;SDS011;38531;53.296;6.614;2022-07-25T00:14:05;0.50;;;0.40;;
52642;SDS011;38531;53.296;6.614;2022-07-25T00:16:31;0.73;;;0.57;;
52642;SDS011;38531;53.296;6.614;2022-07-25T00:18:57;1.95;;;0.60;;
52642;SDS011;38531;53.296;6.614;2022-07-25T00:21:23;0.50;;;0.40;;
52642;SDS011;38531;53.296;6.614;2022-07-25T00:23:49;1.10;;;0.52;;
52642;SDS011;38531;53.296;6.614;2022-07-25T00:26:15;0.70;;;0.40;;
52642;SDS011;38531;53.296;6.614;2022-07-25T00:28:41;0.95;;;0.60;;
52642;SDS011;38531;53.296;6.614;2022-07-25T00:31:10;0.95;;;0.60;;
52642;SDS011;38531;53.296;6.614;2022-07-25T00:33:35;0.93;;;0.63;;
52642;SDS011;38531;53.296;6.614;2022-07-25T00:36:03;1.13;;;0.70;;
52642;SDS011;38531;53.296;6.614;2022-07-25T00:38:33;1.40;;;0.52;;
52642;SDS011;38531;53.296;6.614;2022-07-25T00:40:59;0.80;;;0.55;;
52642;SDS011;38531;53.296;6.614;2022-07-25T00:43:25;2.28;;;0.77;;
52642;SDS011;38531;53.296;6.614;2022-07-25T00:45:53;0.70;;;0.60;;
52642;SDS011;38531;53.296;6.614;2022-07-25T00:48:19;0.80;;;0.60;;
52642;SDS011;38531;53.296;6.614;2022-07-25T00:50:45;1.27;;;0.70;;
52642;SDS011;38531;53.296;6.614;2022-07-25T00:53:11;0.85;;;0.57;;
52642;SDS011;38531;53.296;6.614;2022-07-25T00:55:36;2.13;;;0.60;;
52642;SDS011;38531;53.296;6.614;2022-07-25T00:58:02;1.05;;;0.70;;
52642;SDS011;38531;53.296;6.614;2022-07-25T01:00:28;1.65;;;0.52;;
52642;SDS011;38531;53.296;6.614;2022-07-25T01:02:54;0.90;;;0.70;;
52642;SDS011;38531;53.296;6.614;2022-07-25T01:05:20;1.40;;;0.73;;
52642;SDS011;38531;53.296;6.614;2022-07-25T01:07:45;1.13;;;0.73;;
52642;SDS011;38531;53.296;6.614;2022-07-25T01:10:12;0.57;;;0.57;;
52642;SDS011;38531;53.296;6.614;2022-07-25T01:12:50;1.00;;;0.70;;
52642;SDS011;38531;53.296;6.614;2022-07-25T01:15:18;0.77;;;0.65;;
52642;SDS011;38531;53.296;6.614;2022-07-25T01:17:45;1.05;;;0.60;;
52642;SDS011;38531;53.296;6.614;2022-07-25T01:20:12;1.40;;;0.85;;
52642;SDS011;38531;53.296;6.614;2022-07-25T01:22:39;2.38;;;0.75;;
52642;SDS011;38531;53.296;6.614;2022-07-25T01:25:05;0.85;;;0.70;;
52642;SDS011;38531;53.296;6.614;2022-07-25T01:27:31;1.17;;;0.80;;
52642;SDS011;38531;53.296;6.614;2022-07-25T01:29:56;1.40;;;1.00;;
52642;SDS011;38531;53.296;6.614;2022-07-25T01:32:22;0.93;;;0.80;;
52642;SDS011;38531;53.296;6.614;2022-07-25T01:34:50;1.38;;;0.90;;
52642;SDS011;38531;53.296;6.614;2022-07-25T01:37:18;1.40;;;0.90;;
52642;SDS011;38531;53.296;6.614;2022-07-25T01:39:48;1.70;;;0.93;;
52642;SDS011;38531;53.296;6.614;2022-07-25T01:42:17;1.83;;;1.02;;
52642;SDS011;38531;53.296;6.614;2022-07-25T01:44:45;1.33;;;0.90;;
52642;SDS011;38531;53.296;6.614;2022-07-25T01:47:11;1.10;;;0.82;;
52642;SDS011;38531;53.296;6.614;2022-07-25T01:49:37;1.52;;;1.05;;
52642;SDS011;38531;53.296;6.614;2022-07-25T01:52:03;1.50;;;1.08;;
52642;SDS011;38531;53.296;6.614;2022-07-25T01:54:32;1.63;;;0.90;;
52642;SDS011;38531;53.296;6.614;2022-07-25T01:56:58;1.63;;;1.02;;
52642;SDS011;38531;53.296;6.614;2022-07-25T01:59:23;1.73;;;1.20;;
52642;SDS011;38531;53.296;6.614;2022-07-25T02:01:57;2.25;;;1.10;;
52642;SDS011;38531;53.296;6.614;2022-07-25T02:04:23;1.50;;;1.10;;
52642;SDS011;38531;53.296;6.614;2022-07-25T02:06:52;2.65;;;1.60;;
52642;SDS011;38531;53.296;6.614;2022-07-25T02:09:20;2.90;;;1.80;;
52642;SDS011;38531;53.296;6.614;2022-07-25T02:11:48;3.75;;;1.60;;
52642;SDS011;38531;53.296;6.614;2022-07-25T02:14:17;3.13;;;1.65;;
52642;SDS011;38531;53.296;6.614;2022-07-25T02:16:45;1.88;;;1.42;;
52642;SDS011;38531;53.296;6.614;2022-07-25T02:19:15;3.60;;;1.73;;
52642;SDS011;38531;53.296;6.614;2022-07-25T02:21:49;2.45;;;1.73;;
52642;SDS011;38531;53.296;6.614;2022-07-25T02:26:51;1.83;;;1.20;;
52642;SDS011;38531;53.296;6.614;2022-07-25T02:29:25;2.87;;;2.03;;
52642;SDS011;38531;53.296;6.614;2022-07-25T02:31:56;2.60;;;2.00;;
52642;SDS011;38531;53.296;6.614;2022-07-25T02:34:24;2.22;;;1.50;;
52642;SDS011;38531;53.296;6.614;2022-07-25T02:36:55;1.75;;;1.15;;
52642;SDS011;38531;53.296;6.614;2022-07-25T02:39:21;2.42;;;1.00;;
52642;SDS011;38531;53.296;6.614;2022-07-25T02:41:49;1.30;;;0.93;;
52642;SDS011;38531;53.296;6.614;2022-07-25T02:44:17;1.38;;;0.95;;
52642;SDS011;38531;53.296;6.614;2022-07-25T02:46:43;1.35;;;0.85;;
52642;SDS011;38531;53.296;6.614;2022-07-25T02:49:09;1.10;;;0.77;;
52642;SDS011;38531;53.296;6.614;2022-07-25T02:51:34;1.50;;;0.93;;
52642;SDS011;38531;53.296;6.614;2022-07-25T02:54:00;3.00;;;1.10;;
52642;SDS011;38531;53.296;6.614;2022-07-25T02:56:26;1.70;;;0.95;;
52642;SDS011;38531;53.296;6.614;2022-07-25T02:58:51;1.23;;;0.90;;
52642;SDS011;38531;53.296;6.614;2022-07-25T03:01:17;1.73;;;1.10;;
52642;SDS011;38531;53.296;6.614;2022-07-25T03:03:43;1.55;;;1.17;;
52642;SDS011;38531;53.296;6.614;2022-07-25T03:06:08;2.58;;;1.50;;
52642;SDS011;38531;53.296;6.614;2022-07-25T03:08:37;1.85;;;1.15;;
52642;SDS011;38531;53.296;6.614;2022-07-25T03:11:03;3.90;;;1.10;;
52642;SDS011;38531;53.296;6.614;2022-07-25T03:13:28;2.10;;;1.30;;
52642;SDS011;38531;53.296;6.614;2022-07-25T03:15:55;1.58;;;1.00;;
52642;SDS011;38531;53.296;6.614;2022-07-25T03:18:20;1.35;;;1.00;;
52642;SDS011;38531;53.296;6.614;2022-07-25T03:20:46;1.45;;;1.02;;
52642;SDS011;38531;53.296;6.614;2022-07-25T03:23:12;2.08;;;1.17;;
52642;SDS011;38531;53.296;6.614;2022-07-25T03:25:38;1.80;;;1.40;;
52642;SDS011;38531;53.296;6.614;2022-07-25T03:28:03;2.20;;;1.35;;
52642;SDS011;38531;53.296;6.614;2022-07-25T03:30:29;1.98;;;1.23;;
52642;SDS011;38531;53.296;6.614;2022-07-25T03:32:55;2.22;;;1.30;;
52642;SDS011;38531;53.296;6.614;2022-07-25T03:35:21;2.35;;;1.50;;
52642;SDS011;38531;53.296;6.614;2022-07-25T03:37:47;2.25;;;1.52;;
52642;SDS011;38531;53.296;6.614;2022-07-25T03:40:13;2.50;;;1.42;;
52642;SDS011;38531;53.296;6.614;2022-07-25T03:42:39;3.15;;;1.90;;
52642;SDS011;38531;53.296;6.614;2022-07-25T03:45:05;2.78;;;1.67;;
52642;SDS011;38531;53.296;6.614;2022-07-25T03:47:31;2.78;;;1.95;;
52642;SDS011;38531;53.296;6.614;2022-07-25T03:49:57;2.85;;;1.23;;
52642;SDS011;38531;53.296;6.614;2022-07-25T03:52:23;2.58;;;1.77;;
52642;SDS011;38531;53.296;6.614;2022-07-25T03:54:52;3.33;;;1.63;;
52642;SDS011;38531;53.296;6.614;2022-07-25T03:57:17;2.15;;;1.23;;
52642;SDS011;38531;53.296;6.614;2022-07-25T03:59:43;1.88;;;1.42;;
52642;SDS011;38531;53.296;6.614;2022-07-25T04:02:09;2.10;;;1.60;;
52642;SDS011;38531;53.296;6.614;2022-07-25T04:04:35;1.55;;;1.20;;
52642;SDS011;38531;53.296;6.614;2022-07-25T04:07:01;2.33;;;1.52;;
52642;SDS011;38531;53.296;6.614;2022-07-25T04:09:26;2.17;;;1.60;;
52642;SDS011;38531;53.296;6.614;2022-07-25T04:11:52;2.17;;;1.30;;
52642;SDS011;38531;53.296;6.614;2022-07-25T04:14:18;2.13;;;1.33;;
52642;SDS011;38531;53.296;6.614;2022-07-25T04:16:44;2.50;;;1.77;;
52642;SDS011;38531;53.296;6.614;2022-07-25T04:19:09;2.65;;;1.63;;
52642;SDS011;38531;53.296;6.614;2022-07-25T04:21:35;2.40;;;1.70;;
52642;SDS011;38531;53.296;6.614;2022-07-25T04:24:01;3.03;;;2.08;;
52642;SDS011;38531;53.296;6.614;2022-07-25T04:26:26;2.70;;;1.45;;
52642;SDS011;38531;53.296;6.614;2022-07-25T04:28:52;3.58;;;1.60;;
52642;SDS011;38531;53.296;6.614;2022-07-25T04:31:18;2.33;;;1.73;;
52642;SDS011;38531;53.296;6.614;2022-07-25T04:33:44;1.80;;;1.27;;
52642;SDS011;38531;53.296;6.614;2022-07-25T04:36:10;3.50;;;1.80;;
52642;SDS011;38531;53.296;6.614;2022-07-25T04:38:35;2.60;;;1.85;;
52642;SDS011;38531;53.296;6.614;2022-07-25T04:41:02;2.83;;;1.77;;
52642;SDS011;38531;53.296;6.614;2022-07-25T04:43:28;2.28;;;1.63;;
52642;SDS011;38531;53.296;6.614;2022-07-25T04:45:54;2.85;;;1.85;;
52642;SDS011;38531;53.296;6.614;2022-07-25T04:48:19;2.75;;;1.80;;
52642;SDS011;38531;53.296;6.614;2022-07-25T04:50:45;2.50;;;1.60;;
52642;SDS011;38531;53.296;6.614;2022-07-25T04:53:11;1.80;;;1.50;;
52642;SDS011;38531;53.296;6.614;2022-07-25T04:55:37;2.15;;;1.67;;
52642;SDS011;38531;53.296;6.614;2022-07-25T04:58:03;2.67;;;1.92;;
52642;SDS011;38531;53.296;6.614;2022-07-25T05:00:29;2.42;;;1.60;;
52642;SDS011;38531;53.296;6.614;2022-07-25T05:02:55;4.10;;;1.80;;
52642;SDS011;38531;53.296;6.614;2022-07-25T05:05:22;2.45;;;1.80;;
52642;SDS011;38531;53.296;6.614;2022-07-25T05:07:48;3.22;;;1.90;;
52642;SDS011;38531;53.296;6.614;2022-07-25T05:10:14;3.03;;;1.95;;
52642;SDS011;38531;53.296;6.614;2022-07-25T05:12:40;2.35;;;1.70;;
52642;SDS011;38531;53.296;6.614;2022-07-25T05:15:06;2.38;;;1.85;;
52642;SDS011;38531;53.296;6.614;2022-07-25T05:17:32;3.17;;;1.77;;
52642;SDS011;38531;53.296;6.614;2022-07-25T05:19:57;2.03;;;1.52;;
52642;SDS011;38531;53.296;6.614;2022-07-25T05:22:23;2.50;;;2.00;;
52642;SDS011;38531;53.296;6.614;2022-07-25T05:24:49;2.95;;;1.77;;
52642;SDS011;38531;53.296;6.614;2022-07-25T05:27:15;2.97;;;1.50;;
52642;SDS011;38531;53.296;6.614;2022-07-25T05:29:41;2.88;;;1.67;;
52642;SDS011;38531;53.296;6.614;2022-07-25T05:32:09;2.75;;;1.90;;
52642;SDS011;38531;53.296;6.614;2022-07-25T05:34:35;2.38;;;1.90;;
52642;SDS011;38531;53.296;6.614;2022-07-25T05:37:01;1.52;;;1.23;;
52642;SDS011;38531;53.296;6.614;2022-07-25T05:39:27;2.78;;;1.80;;
52642;SDS011;38531;53.296;6.614;2022-07-25T05:41:53;4.97;;;2.13;;
52642;SDS011;38531;53.296;6.614;2022-07-25T05:44:18;3.67;;;2.15;;
52642;SDS011;38531;53.296;6.614;2022-07-25T05:46:44;2.53;;;1.55;;
52642;SDS011;38531;53.296;6.614;2022-07-25T05:49:10;5.45;;;2.53;;
52642;SDS011;38531;53.296;6.614;2022-07-25T05:51:36;3.20;;;2.05;;
52642;SDS011;38531;53.296;6.614;2022-07-25T05:54:01;3.03;;;1.92;;
52642;SDS011;38531;53.296;6.614;2022-07-25T05:56:27;3.70;;;1.77;;
52642;SDS011;38531;53.296;6.614;2022-07-25T05:58:54;4.63;;;3.65;;
52642;SDS011;38531;53.296;6.614;2022-07-25T06:01:20;3.70;;;2.47;;
52642;SDS011;38531;53.296;6.614;2022-07-25T06:03:46;3.60;;;2.92;;
52642;SDS011;38531;53.296;6.614;2022-07-25T06:06:11;4.38;;;3.30;;
52642;SDS011;38531;53.296;6.614;2022-07-25T06:08:38;3.38;;;2.45;;
52642;SDS011;38531;53.296;6.614;2022-07-25T06:11:04;6.90;;;3.42;;
52642;SDS011;38531;53.296;6.614;2022-07-25T06:13:31;4.00;;;2.72;;
52642;SDS011;38531;53.296;6.614;2022-07-25T06:15:58;5.28;;;3.42;;
52642;SDS011;38531;53.296;6.614;2022-07-25T06:18:24;5.13;;;3.97;;
52642;SDS011;38531;53.296;6.614;2022-07-25T06:20:51;7.45;;;4.72;;
52642;SDS011;38531;53.296;6.614;2022-07-25T06:23:19;3.75;;;2.92;;
52642;SDS011;38531;53.296;6.614;2022-07-25T06:25:45;5.43;;;4.32;;
52642;SDS011;38531;53.296;6.614;2022-07-25T06:28:12;8.82;;;5.25;;
52642;SDS011;38531;53.296;6.614;2022-07-25T06:30:45;6.35;;;3.95;;
52642;SDS011;38531;53.296;6.614;2022-07-25T06:33:11;7.78;;;3.70;;
52642;SDS011;38531;53.296;6.614;2022-07-25T06:35:37;4.25;;;3.25;;
52642;SDS011;38531;53.296;6.614;2022-07-25T06:38:03;6.93;;;4.93;;
52642;SDS011;38531;53.296;6.614;2022-07-25T06:40:29;6.07;;;4.32;;
52642;SDS011;38531;53.296;6.614;2022-07-25T06:42:55;6.05;;;4.10;;
52642;SDS011;38531;53.296;6.614;2022-07-25T06:45:23;6.18;;;4.40;;
52642;SDS011;38531;53.296;6.614;2022-07-25T06:47:52;6.20;;;2.80;;
52642;SDS011;38531;53.296;6.614;2022-07-25T06:50:20;5.13;;;3.03;;
52642;SDS011;38531;53.296;6.614;2022-07-25T06:52:51;7.55;;;3.20;;
52642;SDS011;38531;53.296;6.614;2022-07-25T06:55:18;6.50;;;3.95;;
52642;SDS011;38531;53.296;6.614;2022-07-25T06:57:44;4.85;;;3.40;;
52642;SDS011;38531;53.296;6.614;2022-07-25T07:00:10;4.63;;;3.30;;
52642;SDS011;38531;53.296;6.614;2022-07-25T07:02:50;5.30;;;4.07;;
52642;SDS011;38531;53.296;6.614;2022-07-25T07:05:23;6.57;;;3.65;;
52642;SDS011;38531;53.296;6.614;2022-07-25T07:07:51;5.57;;;3.30;;
52642;SDS011;38531;53.296;6.614;2022-07-25T07:10:26;4.35;;;2.95;;
52642;SDS011;38531;53.296;6.614;2022-07-25T07:13:09;6.35;;;4.20;;
52642;SDS011;38531;53.296;6.614;2022-07-25T07:19:58;5.07;;;4.07;;
52642;SDS011;38531;53.296;6.614;2022-07-25T07:22:31;5.82;;;3.05;;
52642;SDS011;38531;53.296;6.614;2022-07-25T07:25:23;3.92;;;2.65;;
52642;SDS011;38531;53.296;6.614;2022-07-25T07:27:51;4.95;;;2.58;;
52642;SDS011;38531;53.296;6.614;2022-07-25T07:37:57;4.82;;;3.72;;
52642;SDS011;38531;53.296;6.614;2022-07-25T07:40:28;5.60;;;3.28;;
52642;SDS011;38531;53.296;6.614;2022-07-25T07:42:56;3.67;;;2.80;;
52642;SDS011;38531;53.296;6.614;2022-07-25T07:45:26;5.55;;;3.78;;
52642;SDS011;38531;53.296;6.614;2022-07-25T07:47:52;3.90;;;2.80;;
52642;SDS011;38531;53.296;6.614;2022-07-25T07:50:23;4.30;;;2.85;;
52642;SDS011;38531;53.296;6.614;2022-07-25T07:52:51;4.75;;;2.35;;
52642;SDS011;38531;53.296;6.614;2022-07-25T07:55:17;3.70;;;2.70;;
52642;SDS011;38531;53.296;6.614;2022-07-25T07:58:02;4.75;;;2.90;;
52642;SDS011;38531;53.296;6.614;2022-07-25T08:00:29;4.75;;;2.20;;
52642;SDS011;38531;53.296;6.614;2022-07-25T08:02:55;2.33;;;1.95;;
52642;SDS011;38531;53.296;6.614;2022-07-25T08:05:30;5.28;;;2.42;;
52642;SDS011;38531;53.296;6.614;2022-07-25T08:08:04;6.40;;;3.00;;
52642;SDS011;38531;53.296;6.614;2022-07-25T08:10:32;2.55;;;1.83;;
52642;SDS011;38531;53.296;6.614;2022-07-25T08:13:00;3.88;;;2.35;;
52642;SDS011;38531;53.296;6.614;2022-07-25T08:15:27;3.40;;;2.38;;
52642;SDS011;38531;53.296;6.614;2022-07-25T08:17:53;6.22;;;2.30;;
52642;SDS011;38531;53.296;6.614;2022-07-25T08:20:19;4.15;;;2.53;;
52642;SDS011;38531;53.296;6.614;2022-07-25T08:22:48;3.55;;;2.30;;
52642;SDS011;38531;53.296;6.614;2022-07-25T08:25:18;2.78;;;2.25;;
52642;SDS011;38531;53.296;6.614;2022-07-25T08:27:45;4.35;;;2.10;;
52642;SDS011;38531;53.296;6.614;2022-07-25T08:30:14;2.67;;;1.70;;
52642;SDS011;38531;53.296;6.614;2022-07-25T08:37:31;3.63;;;2.17;;
52642;SDS011;38531;53.296;6.614;2022-07-25T08:39:57;3.08;;;1.45;;
52642;SDS011;38531;53.296;6.614;2022-07-25T08:42:23;2.72;;;1.80;;
52642;SDS011;38531;53.296;6.614;2022-07-25T08:44:57;2.40;;;1.48;;
52642;SDS011;38531;53.296;6.614;2022-07-25T08:47:24;2.60;;;1.30;;
52642;SDS011;38531;53.296;6.614;2022-07-25T08:49:52;2.05;;;1.15;;
52642;SDS011;38531;53.296;6.614;2022-07-25T08:52:20;2.65;;;1.45;;
52642;SDS011;38531;53.296;6.614;2022-07-25T08:54:48;1.33;;;0.93;;
52642;SDS011;38531;53.296;6.614;2022-07-25T08:57:17;1.95;;;1.05;;
52642;SDS011;38531;53.296;6.614;2022-07-25T08:59:45;3.22;;;1.35;;
52642;SDS011;38531;53.296;6.614;2022-07-25T09:02:12;2.67;;;0.88;;
52642;SDS011;38531;53.296;6.614;2022-07-25T09:04:39;2.80;;;0.90;;
52642;SDS011;38531;53.296;6.614;2022-07-25T09:07:07;1.45;;;1.00;;
52642;SDS011;38531;53.296;6.614;2022-07-25T09:09:34;2.30;;;1.13;;
52642;SDS011;38531;53.296;6.614;2022-07-25T09:12:02;3.45;;;1.23;;
52642;SDS011;38531;53.296;6.614;2022-07-25T09:14:39;1.73;;;1.00;;
52642;SDS011;38531;53.296;6.614;2022-07-25T09:17:24;1.65;;;0.68;;
52642;SDS011;38531;53.296;6.614;2022-07-25T09:19:51;1.80;;;0.70;;
52642;SDS011;38531;53.296;6.614;2022-07-25T09:22:27;1.38;;;0.60;;
52642;SDS011;38531;53.296;6.614;2022-07-25T09:24:57;1.13;;;0.82;;
52642;SDS011;38531;53.296;6.614;2022-07-25T09:27:31;3.15;;;0.50;;
52642;SDS011;38531;53.296;6.614;2022-07-25T09:30:00;1.17;;;0.70;;
52642;SDS011;38531;53.296;6.614;2022-07-25T09:32:57;1.42;;;0.70;;
52642;SDS011;38531;53.296;6.614;2022-07-25T09:35:32;1.75;;;0.60;;
52642;SDS011;38531;53.296;6.614;2022-07-25T09:38:13;0.93;;;0.70;;
52642;SDS011;38531;53.296;6.614;2022-07-25T09:40:52;0.80;;;0.52;;
52642;SDS011;38531;53.296;6.614;2022-07-25T09:43:21;0.68;;;0.50;;
52642;SDS011;38531;53.296;6.614;2022-07-25T09:45:48;0.55;;;0.40;;
52642;SDS011;38531;53.296;6.614;2022-07-25T09:48:18;0.82;;;0.50;;
52642;SDS011;38531;53.296;6.614;2022-07-25T09:50:46;0.90;;;0.50;;
52642;SDS011;38531;53.296;6.614;2022-07-25T09:53:13;1.13;;;0.50;;
52642;SDS011;38531;53.296;6.614;2022-07-25T09:55:41;1.58;;;0.55;;
52642;SDS011;38531;53.296;6.614;2022-07-25T09:58:11;1.45;;;0.52;;
52642;SDS011;38531;53.296;6.614;2022-07-25T10:00:38;1.00;;;0.50;;
52642;SDS011;38531;53.296;6.614;2022-07-25T10:03:14;2.00;;;0.50;;
52642;SDS011;38531;53.296;6.614;2022-07-25T10:06:02;1.30;;;0.43;;
52642;SDS011;38531;53.296;6.614;2022-07-25T10:08:38;0.90;;;0.60;;
52642;SDS011;38531;53.296;6.614;2022-07-25T10:11:22;2.22;;;0.63;;
52642;SDS011;38531;53.296;6.614;2022-07-25T10:13:53;2.13;;;0.60;;
52642;SDS011;38531;53.296;6.614;2022-07-25T10:16:24;1.88;;;0.57;;
52642;SDS011;38531;53.296;6.614;2022-07-25T10:18:52;0.93;;;0.50;;
52642;SDS011;38531;53.296;6.614;2022-07-25T10:21:23;1.00;;;0.50;;
52642;SDS011;38531;53.296;6.614;2022-07-25T10:24:00;1.30;;;0.50;;
52642;SDS011;38531;53.296;6.614;2022-07-25T10:26:27;1.20;;;0.47;;
52642;SDS011;38531;53.296;6.614;2022-07-25T10:28:57;0.55;;;0.32;;
52642;SDS011;38531;53.296;6.614;2022-07-25T10:34:15;2.65;;;0.63;;
52642;SDS011;38531;53.296;6.614;2022-07-25T10:37:18;1.35;;;0.45;;
52642;SDS011;38531;53.296;6.614;2022-07-25T10:39:50;0.70;;;0.40;;
52642;SDS011;38531;53.296;6.614;2022-07-25T10:42:21;1.67;;;0.60;;
52642;SDS011;38531;53.296;6.614;2022-07-25T10:44:48;1.80;;;0.60;;
52642;SDS011;38531;53.296;6.614;2022-07-25T10:47:21;1.45;;;0.70;;
52642;SDS011;38531;53.296;6.614;2022-07-25T10:49:54;0.80;;;0.50;;
52642;SDS011;38531;53.296;6.614;2022-07-25T10:52:26;1.90;;;0.63;;
52642;SDS011;38531;53.296;6.614;2022-07-25T10:54:53;1.25;;;0.52;;
52642;SDS011;38531;53.296;6.614;2022-07-25T10:57:23;1.45;;;0.45;;
52642;SDS011;38531;53.296;6.614;2022-07-25T10:59:52;2.25;;;0.50;;
52642;SDS011;38531;53.296;6.614;2022-07-25T11:02:18;1.67;;;0.70;;
52642;SDS011;38531;53.296;6.614;2022-07-25T11:04:56;1.02;;;0.50;;
52642;SDS011;38531;53.296;6.614;2022-07-25T11:07:27;2.78;;;0.77;;
52642;SDS011;38531;53.296;6.614;2022-07-25T11:10:03;3.00;;;0.90;;
52642;SDS011;38531;53.296;6.614;2022-07-25T11:12:32;2.70;;;0.80;;
52642;SDS011;38531;53.296;6.614;2022-07-25T11:15:02;1.45;;;0.60;;
52642;SDS011;38531;53.296;6.614;2022-07-25T11:17:30;2.03;;;0.60;;
52642;SDS011;38531;53.296;6.614;2022-07-25T11:20:03;1.90;;;0.50;;
52642;SDS011;38531;53.296;6.614;2022-07-25T11:22:32;1.77;;;0.57;;
52642;SDS011;38531;53.296;6.614;2022-07-25T11:24:59;1.30;;;0.50;;
52642;SDS011;38531;53.296;6.614;2022-07-25T11:27:29;1.08;;;0.50;;
52642;SDS011;38531;53.296;6.614;2022-07-25T11:30:09;2.15;;;0.40;;
52642;SDS011;38531;53.296;6.614;2022-07-25T11:32:42;3.17;;;0.60;;
52642;SDS011;38531;53.296;6.614;2022-07-25T11:35:14;1.58;;;0.52;;
52642;SDS011;38531;53.296;6.614;2022-07-25T11:37:45;3.08;;;0.63;;
52642;SDS011;38531;53.296;6.614;2022-07-25T11:40:13;1.33;;;0.50;;
52642;SDS011;38531;53.296;6.614;2022-07-25T11:42:44;1.48;;;0.50;;
52642;SDS011;38531;53.296;6.614;2022-07-25T11:47:49;2.47;;;0.57;;
52642;SDS011;38531;53.296;6.614;2022-07-25T11:50:38;2.33;;;0.50;;
52642;SDS011;38531;53.296;6.614;2022-07-25T11:53:11;4.03;;;0.60;;
52642;SDS011;38531;53.296;6.614;2022-07-25T11:55:45;2.13;;;0.60;;
52642;SDS011;38531;53.296;6.614;2022-07-25T11:58:11;1.45;;;0.50;;
52642;SDS011;38531;53.296;6.614;2022-07-25T12:00:47;1.88;;;0.68;;
52642;SDS011;38531;53.296;6.614;2022-07-25T12:03:15;1.80;;;0.50;;
52642;SDS011;38531;53.296;6.614;2022-07-25T12:05:43;4.18;;;0.70;;
52642;SDS011;38531;53.296;6.614;2022-07-25T12:08:09;5.38;;;0.57;;
52642;SDS011;38531;53.296;6.614;2022-07-25T12:10:50;2.95;;;0.60;;
52642;SDS011;38531;53.296;6.614;2022-07-25T12:15:58;3.65;;;1.00;;
52642;SDS011;38531;53.296;6.614;2022-07-25T12:18:24;3.15;;;0.77;;
52642;SDS011;38531;53.296;6.614;2022-07-25T12:20:55;2.17;;;0.68;;
52642;SDS011;38531;53.296;6.614;2022-07-25T12:23:22;2.75;;;0.47;;
52642;SDS011;38531;53.296;6.614;2022-07-25T12:25:48;1.88;;;0.40;;
52642;SDS011;38531;53.296;6.614;2022-07-25T12:28:17;2.65;;;0.60;;
52642;SDS011;38531;53.296;6.614;2022-07-25T12:30:43;5.20;;;1.02;;
52642;SDS011;38531;53.296;6.614;2022-07-25T12:33:20;3.42;;;0.50;;
52642;SDS011;38531;53.296;6.614;2022-07-25T12:35:49;1.55;;;0.40;;
52642;SDS011;38531;53.296;6.614;2022-07-25T12:38:20;5.47;;;0.60;;
52642;SDS011;38531;53.296;6.614;2022-07-25T12:40:45;4.13;;;0.75;;
52642;SDS011;38531;53.296;6.614;2022-07-25T12:43:14;1.13;;;0.35;;
52642;SDS011;38531;53.296;6.614;2022-07-25T12:45:40;3.60;;;0.50;;
52642;SDS011;38531;53.296;6.614;2022-07-25T12:48:06;0.68;;;0.43;;
52642;SDS011;38531;53.296;6.614;2022-07-25T12:50:33;2.17;;;0.40;;
52642;SDS011;38531;53.296;6.614;2022-07-25T12:53:01;1.33;;;0.50;;
52642;SDS011;38531;53.296;6.614;2022-07-25T12:55:29;1.48;;;0.50;;
52642;SDS011;38531;53.296;6.614;2022-07-25T12:57:55;1.17;;;0.38;;
52642;SDS011;38531;53.296;6.614;2022-07-25T13:00:32;2.65;;;0.55;;
52642;SDS011;38531;53.296;6.614;2022-07-25T13:02:58;1.88;;;0.40;;
52642;SDS011;38531;53.296;6.614;2022-07-25T13:05:27;2.78;;;0.47;;
52642;SDS011;38531;53.296;6.614;2022-07-25T13:07:53;2.85;;;0.40;;
52642;SDS011;38531;53.296;6.614;2022-07-25T13:10:19;1.48;;;0.50;;
52642;SDS011;38531;53.296;6.614;2022-07-25T13:12:45;3.00;;;0.50;;
52642;SDS011;38531;53.296;6.614;2022-07-25T13:15:11;2.25;;;0.60;;
52642;SDS011;38531;53.296;6.614;2022-07-25T13:17:40;2.05;;;0.50;;
52642;SDS011;38531;53.296;6.614;2022-07-25T13:20:06;3.38;;;0.50;;
52642;SDS011;38531;53.296;6.614;2022-07-25T13:22:33;2.03;;;0.32;;
52642;SDS011;38531;53.296;6.614;2022-07-25T13:24:59;2.33;;;0.50;;
52642;SDS011;38531;53.296;6.614;2022-07-25T13:27:33;1.90;;;0.50;;
52642;SDS011;38531;53.296;6.614;2022-07-25T13:30:01;3.22;;;0.93;;
52642;SDS011;38531;53.296;6.614;2022-07-25T13:36:07;3.20;;;0.73;;
52642;SDS011;38531;53.296;6.614;2022-07-25T13:38:36;2.63;;;0.45;;
52642;SDS011;38531;53.296;6.614;2022-07-25T13:41:08;2.88;;;0.50;;
52642;SDS011;38531;53.296;6.614;2022-07-25T13:43:35;3.67;;;0.60;;
52642;SDS011;38531;53.296;6.614;2022-07-25T13:46:01;2.28;;;0.80;;
52642;SDS011;38531;53.296;6.614;2022-07-25T13:48:28;2.17;;;0.65;;
52642;SDS011;38531;53.296;6.614;2022-07-25T13:50:57;2.58;;;0.57;;
52642;SDS011;38531;53.296;6.614;2022-07-25T13:53:25;1.40;;;0.40;;
52642;SDS011;38531;53.296;6.614;2022-07-25T13:55:54;2.33;;;0.60;;
52642;SDS011;38531;53.296;6.614;2022-07-25T13:58:23;1.65;;;0.50;;
52642;SDS011;38531;53.296;6.614;2022-07-25T14:00:49;2.22;;;0.68;;
52642;SDS011;38531;53.296;6.614;2022-07-25T14:03:15;3.72;;;0.80;;
52642;SDS011;38531;53.296;6.614;2022-07-25T14:05:44;3.80;;;0.50;;
52642;SDS011;38531;53.296;6.614;2022-07-25T14:08:09;2.85;;;0.60;;
52642;SDS011;38531;53.296;6.614;2022-07-25T14:10:35;4.15;;;0.85;;
52642;SDS011;38531;53.296;6.614;2022-07-25T14:13:04;1.17;;;0.52;;
52642;SDS011;38531;53.296;6.614;2022-07-25T14:15:29;2.95;;;0.60;;
52642;SDS011;38531;53.296;6.614;2022-07-25T14:17:56;3.25;;;0.73;;
52642;SDS011;38531;53.296;6.614;2022-07-25T14:20:24;5.47;;;0.80;;
52642;SDS011;38531;53.296;6.614;2022-07-25T14:22:50;2.40;;;0.60;;
52642;SDS011;38531;53.296;6.614;2022-07-25T14:25:18;2.28;;;0.70;;
52642;SDS011;38531;53.296;6.614;2022-07-25T14:27:47;2.85;;;0.70;;
52642;SDS011;38531;53.296;6.614;2022-07-25T14:30:13;2.92;;;0.65;;
52642;SDS011;38531;53.296;6.614;2022-07-25T14:32:42;4.22;;;0.50;;
52642;SDS011;38531;53.296;6.614;2022-07-25T14:35:10;3.25;;;0.70;;
52642;SDS011;38531;53.296;6.614;2022-07-25T14:37:37;3.38;;;0.60;;
52642;SDS011;38531;53.296;6.614;2022-07-25T14:40:03;3.33;;;0.52;;
52642;SDS011;38531;53.296;6.614;2022-07-25T14:42:36;2.33;;;0.50;;
52642;SDS011;38531;53.296;6.614;2022-07-25T14:45:05;4.03;;;0.52;;
52642;SDS011;38531;53.296;6.614;2022-07-25T14:47:37;3.47;;;0.63;;
52642;SDS011;38531;53.296;6.614;2022-07-25T14:50:16;6.07;;;1.05;;
52642;SDS011;38531;53.296;6.614;2022-07-25T14:52:42;1.67;;;0.50;;
52642;SDS011;38531;53.296;6.614;2022-07-25T14:55:08;1.33;;;0.50;;
52642;SDS011;38531;53.296;6.614;2022-07-25T14:57:34;4.22;;;0.60;;
52642;SDS011;38531;53.296;6.614;2022-07-25T15:00:02;2.08;;;0.60;;
52642;SDS011;38531;53.296;6.614;2022-07-25T15:06:10;5.40;;;0.55;;
52642;SDS011;38531;53.296;6.614;2022-07-25T15:08:41;4.97;;;0.70;;
52642;SDS011;38531;53.296;6.614;2022-07-25T15:11:08;1.42;;;0.52;;
52642;SDS011;38531;53.296;6.614;2022-07-25T15:13:35;3.05;;;0.73;;
52642;SDS011;38531;53.296;6.614;2022-07-25T15:16:01;2.67;;;0.50;;
52642;SDS011;38531;53.296;6.614;2022-07-25T15:18:30;5.60;;;0.70;;
52642;SDS011;38531;53.296;6.614;2022-07-25T15:20:56;5.50;;;0.70;;
52642;SDS011;38531;53.296;6.614;2022-07-25T15:23:49;3.22;;;0.80;;
52642;SDS011;38531;53.296;6.614;2022-07-25T15:26:16;4.25;;;0.52;;
52642;SDS011;38531;53.296;6.614;2022-07-25T15:28:42;2.95;;;0.60;;
52642;SDS011;38531;53.296;6.614;2022-07-25T15:31:08;5.47;;;0.68;;